sensor_id;sensor_type;location;lat;lon;timestamp;pressure;altitude;pressure_sealevel;temperature;humidity
79463;BME280;68931;47.286;18.756;2024-02-28T00:00:24;100567.91;;;8.60;100.00
79463;BME280;68931;47.286;18.756;2024-02-28T00:00:56;100574.69;;;8.64;100.00
79463;BME280;68931;47.286;18.756;2024-02-28T00:01:28;100564.53;;;8.58;100.00
79463;BME280;68931;47.286;18.756;2024-02-28T00:02:01;100578.78;;;8.70;100.00
79463;BME280;68931;47.286;18.756;2024-02-28T00:02:36;100574.47;;;8.68;100.00
79463;BME280;68931;47.286;18.756;2024-02-28T00:03:08;100577.09;;;8.68;100.00
79463;BME280;68931;47.286;18.756;2024-02-28T00:03:40;100571.16;;;8.65;100.00
79463;BME280;68931;47.286;18.756;2024-02-28T00:04:13;100579.53;;;8.72;100.00
79463;BME280;68931;47.286;18.756;2024-02-28T00:04:45;100571.84;;;8.68;100.00
79463;BME280;68931;47.286;18.756;2024-02-28T00:05:17;100574.47;;;8.68;100.00
79463;BME280;68931;47.286;18.756;2024-02-28T00:05:52;100574.47;;;8.68;100.00
79463;BME280;68931;47.286;18.756;2024-02-28T00:06:24;100581.31;;;8.71;100.00
79463;BME280;68931;47.286;18.756;2024-02-28T00:06:56;100552.44;;;8.55;100.00
79463;BME280;68931;47.286;18.756;2024-02-28T00:07:28;100553.44;;;8.53;100.00
79463;BME280;68931;47.286;18.756;2024-02-28T00:08:00;100568.53;;;8.65;100.00
79463;BME280;68931;47.286;18.756;2024-02-28T00:08:32;100571.00;;;8.68;100.00
79463;BME280;68931;47.286;18.756;2024-02-28T00:09:04;100577.88;;;8.71;100.00
79463;BME280;68931;47.286;18.756;2024-02-28T00:09:36;100566.06;;;8.62;100.00
79463;BME280;68931;47.286;18.756;2024-02-28T00:10:08;100575.31;;;8.69;100.00
79463;BME280;68931;47.286;18.756;2024-02-28T00:10:40;100575.16;;;8.72;100.00
79463;BME280;68931;47.286;18.756;2024-02-28T00:11:15;100560.06;;;8.60;100.00
79463;BME280;68931;47.286;18.756;2024-02-28T00:11:47;100578.53;;;8.74;100.00
79463;BME280;68931;47.286;18.756;2024-02-28T00:12:19;100568.47;;;8.66;100.00
79463;BME280;68931;47.286;18.756;2024-02-28T00:12:51;100582.06;;;8.73;100.00
79463;BME280;68931;47.286;18.756;2024-02-28T00:13:23;100569.31;;;8.67;100.00
79463;BME280;68931;47.286;18.756;2024-02-28T00:13:56;100549.81;;;8.55;100.00
79463;BME280;68931;47.286;18.756;2024-02-28T00:14:28;100572.53;;;8.72;100.00
79463;BME280;68931;47.286;18.756;2024-02-28T00:15:01;100564.94;;;8.67;100.00
79463;BME280;68931;47.286;18.756;2024-02-28T00:15:35;100577.69;;;8.74;100.00
79463;BME280;68931;47.286;18.756;2024-02-28T00:16:07;100553.94;;;8.61;100.00
79463;BME280;68931;47.286;18.756;2024-02-28T00:16:46;100571.69;;;8.72;100.00
79463;BME280;68931;47.286;18.756;2024-02-28T00:17:19;100540.38;;;8.53;100.00
79463;BME280;68931;47.286;18.756;2024-02-28T00:17:54;100563.22;;;8.66;100.00
79463;BME280;68931;47.286;18.756;2024-02-28T00:18:26;100558.38;;;8.59;100.00
79463;BME280;68931;47.286;18.756;2024-02-28T00:18:58;100560.13;;;8.58;100.00
79463;BME280;68931;47.286;18.756;2024-02-28T00:19:30;100570.16;;;8.67;100.00
79463;BME280;68931;47.286;18.756;2024-02-28T00:20:02;100567.84;;;8.61;100.00
79463;BME280;68931;47.286;18.756;2024-02-28T00:20:34;100567.63;;;8.66;100.00
79463;BME280;68931;47.286;18.756;2024-02-28T00:21:06;100576.16;;;8.70;100.00
79463;BME280;68931;47.286;18.756;2024-02-28T00:21:39;100583.00;;;8.72;100.00
79463;BME280;68931;47.286;18.756;2024-02-28T00:22:14;100583.00;;;8.72;100.00
79463;BME280;68931;47.286;18.756;2024-02-28T00:22:46;100560.81;;;8.62;100.00
79463;BME280;68931;47.286;18.756;2024-02-28T00:23:18;100558.13;;;8.63;100.00
79463;BME280;68931;47.286;18.756;2024-02-28T00:23:50;100563.44;;;8.62;100.00
79463;BME280;68931;47.286;18.756;2024-02-28T00:24:22;100561.00;;;8.59;100.00
79463;BME280;68931;47.286;18.756;2024-02-28T00:24:54;100572.00;;;8.65;100.00
79463;BME280;68931;47.286;18.756;2024-02-28T00:25:26;100577.16;;;8.67;100.00
79463;BME280;68931;47.286;18.756;2024-02-28T00:25:58;100576.00;;;8.73;100.00
79463;BME280;68931;47.286;18.756;2024-02-28T00:26:30;100573.16;;;8.60;100.00
79463;BME280;68931;47.286;18.756;2024-02-28T00:27:02;100568.06;;;8.57;100.00
79463;BME280;68931;47.286;18.756;2024-02-28T00:27:37;100585.63;;;8.72;100.00
79463;BME280;68931;47.286;18.756;2024-02-28T00:28:11;100578.84;;;8.68;100.00
79463;BME280;68931;47.286;18.756;2024-02-28T00:28:43;100584.00;;;8.70;100.00
79463;BME280;68931;47.286;18.756;2024-02-28T00:29:15;100587.47;;;8.70;100.00
79463;BME280;68931;47.286;18.756;2024-02-28T00:29:47;100551.66;;;8.53;100.00
79463;BME280;68931;47.286;18.756;2024-02-28T00:30:19;100577.88;;;8.71;100.00
79463;BME280;68931;47.286;18.756;2024-02-28T00:30:54;100568.66;;;8.62;100.00
79463;BME280;68931;47.286;18.756;2024-02-28T00:31:26;100566.22;;;8.59;100.00
79463;BME280;68931;47.286;18.756;2024-02-28T00:31:58;100577.16;;;8.67;100.00
79463;BME280;68931;47.286;18.756;2024-02-28T00:32:30;100573.81;;;8.63;100.00
79463;BME280;68931;47.286;18.756;2024-02-28T00:33:02;100552.59;;;8.52;100.00
79463;BME280;68931;47.286;18.756;2024-02-28T00:33:34;100561.91;;;8.58;100.00
79463;BME280;68931;47.286;18.756;2024-02-28T00:34:07;100557.53;;;8.58;100.00
79463;BME280;68931;47.286;18.756;2024-02-28T00:34:40;100567.91;;;8.60;100.00
79463;BME280;68931;47.286;18.756;2024-02-28T00:35:12;100569.50;;;8.62;100.00
79463;BME280;68931;47.286;18.756;2024-02-28T00:35:45;100576.38;;;8.65;100.00
79463;BME280;68931;47.286;18.756;2024-02-28T00:36:17;100567.13;;;8.58;100.00
79463;BME280;68931;47.286;18.756;2024-02-28T00:36:50;100561.06;;;8.57;100.00
79463;BME280;68931;47.286;18.756;2024-02-28T00:37:22;100566.22;;;8.59;100.00
79463;BME280;68931;47.286;18.756;2024-02-28T00:37:55;100551.59;;;8.55;100.00
79463;BME280;68931;47.286;18.756;2024-02-28T00:38:27;100582.31;;;8.68;100.00
79463;BME280;68931;47.286;18.756;2024-02-28T00:38:59;100578.91;;;8.66;100.00
79463;BME280;68931;47.286;18.756;2024-02-28T00:39:31;100591.00;;;8.69;100.00
79463;BME280;68931;47.286;18.756;2024-02-28T00:40:04;100578.38;;;8.60;100.00
79463;BME280;68931;47.286;18.756;2024-02-28T00:40:36;100564.91;;;8.50;100.00
79463;BME280;68931;47.286;18.756;2024-02-28T00:41:08;100585.13;;;8.64;100.00
79463;BME280;68931;47.286;18.756;2024-02-28T00:41:40;100558.88;;;8.48;100.00
79463;BME280;68931;47.286;18.756;2024-02-28T00:42:12;100577.47;;;8.61;100.00
79463;BME280;68931;47.286;18.756;2024-02-28T00:42:44;100589.44;;;8.65;100.00
79463;BME280;68931;47.286;18.756;2024-02-28T00:43:17;100594.38;;;8.71;100.00
79463;BME280;68931;47.286;18.756;2024-02-28T00:43:49;100567.44;;;8.52;100.00
79463;BME280;68931;47.286;18.756;2024-02-28T00:44:21;100568.97;;;8.56;100.00
79463;BME280;68931;47.286;18.756;2024-02-28T00:44:53;100578.59;;;8.55;100.00
79463;BME280;68931;47.286;18.756;2024-02-28T00:45:25;100565.75;;;8.51;100.00
79463;BME280;68931;47.286;18.756;2024-02-28T00:45:57;100581.66;;;8.63;100.00
79463;BME280;68931;47.286;18.756;2024-02-28T00:46:30;100570.81;;;8.54;100.00
79463;BME280;68931;47.286;18.756;2024-02-28T00:47:02;100569.03;;;8.54;100.00
79463;BME280;68931;47.286;18.756;2024-02-28T00:47:34;100567.34;;;8.53;100.00
79463;BME280;68931;47.286;18.756;2024-02-28T00:48:06;100557.84;;;8.52;100.00
79463;BME280;68931;47.286;18.756;2024-02-28T00:48:38;100565.38;;;8.58;100.00
79463;BME280;68931;47.286;18.756;2024-02-28T00:49:11;100564.66;;;8.55;100.00
79463;BME280;68931;47.286;18.756;2024-02-28T00:49:43;100567.13;;;8.58;100.00
79463;BME280;68931;47.286;18.756;2024-02-28T00:50:15;100568.06;;;8.57;100.00
79463;BME280;68931;47.286;18.756;2024-02-28T00:50:47;100561.13;;;8.56;100.00
79463;BME280;68931;47.286;18.756;2024-02-28T00:51:19;100560.50;;;8.51;100.00
79463;BME280;68931;47.286;18.756;2024-02-28T00:51:51;100590.38;;;8.64;100.00
79463;BME280;68931;47.286;18.756;2024-02-28T00:52:23;100564.66;;;8.55;100.00
79463;BME280;68931;47.286;18.756;2024-02-28T00:52:56;100560.44;;;8.52;100.00
79463;BME280;68931;47.286;18.756;2024-02-28T00:53:28;100579.22;;;8.60;100.00
79463;BME280;68931;47.286;18.756;2024-02-28T00:54:02;100559.72;;;8.49;100.00
79463;BME280;68931;47.286;18.756;2024-02-28T00:54:34;100555.66;;;8.43;100.00
79463;BME280;68931;47.286;18.756;2024-02-28T00:55:06;100555.56;;;8.45;100.00
79463;BME280;68931;47.286;18.756;2024-02-28T00:55:38;100547.16;;;8.38;100.00
79463;BME280;68931;47.286;18.756;2024-02-28T00:56:10;100552.31;;;8.40;100.00
79463;BME280;68931;47.286;18.756;2024-02-28T00:56:42;100557.25;;;8.46;100.00
79463;BME280;68931;47.286;18.756;2024-02-28T00:57:14;100549.66;;;8.41;100.00
79463;BME280;68931;47.286;18.756;2024-02-28T00:57:46;100565.81;;;8.49;100.00
79463;BME280;68931;47.286;18.756;2024-02-28T00:58:18;100560.72;;;8.46;100.00
79463;BME280;68931;47.286;18.756;2024-02-28T00:58:50;100568.50;;;8.48;100.00
79463;BME280;68931;47.286;18.756;2024-02-28T00:59:23;100565.81;;;8.49;100.00
79463;BME280;68931;47.286;18.756;2024-02-28T00:59:55;100554.88;;;8.41;100.00
79463;BME280;68931;47.286;18.756;2024-02-28T01:00:27;100565.09;;;8.46;100.00
79463;BME280;68931;47.286;18.756;2024-02-28T01:00:59;100576.28;;;8.49;100.00
79463;BME280;68931;47.286;18.756;2024-02-28T01:01:31;100557.56;;;8.40;100.00
79463;BME280;68931;47.286;18.756;2024-02-28T01:02:05;100568.63;;;8.45;100.00
79463;BME280;68931;47.286;18.756;2024-02-28T01:02:39;100571.25;;;8.45;100.00
79463;BME280;68931;47.286;18.756;2024-02-28T01:03:13;100569.78;;;8.39;100.00
79463;BME280;68931;47.286;18.756;2024-02-28T01:03:47;100551.03;;;8.29;100.00
79463;BME280;68931;47.286;18.756;2024-02-28T01:04:19;100566.44;;;8.36;100.00
79463;BME280;68931;47.286;18.756;2024-02-28T01:04:51;100556.16;;;8.33;100.00
79463;BME280;68931;47.286;18.756;2024-02-28T01:05:23;100562.72;;;8.41;100.00
79463;BME280;68931;47.286;18.756;2024-02-28T01:05:55;100568.00;;;8.40;100.00
79463;BME280;68931;47.286;18.756;2024-02-28T01:06:27;100570.44;;;8.44;100.00
79463;BME280;68931;47.286;18.756;2024-02-28T01:07:00;100577.25;;;8.47;100.00
79463;BME280;68931;47.286;18.756;2024-02-28T01:07:32;100552.72;;;8.30;100.00
79463;BME280;68931;47.286;18.756;2024-02-28T01:08:04;100571.47;;;8.40;100.00
79463;BME280;68931;47.286;18.756;2024-02-28T01:08:36;100557.91;;;8.32;100.00
79463;BME280;68931;47.286;18.756;2024-02-28T01:09:08;100564.69;;;8.36;100.00
79463;BME280;68931;47.286;18.756;2024-02-28T01:09:40;100557.19;;;8.28;100.00
79463;BME280;68931;47.286;18.756;2024-02-28T01:10:12;100562.34;;;8.30;100.00
79463;BME280;68931;47.286;18.756;2024-02-28T01:10:45;100573.25;;;8.40;100.00
79463;BME280;68931;47.286;18.756;2024-02-28T01:11:18;100548.47;;;8.28;100.00
79463;BME280;68931;47.286;18.756;2024-02-28T01:11:50;100574.03;;;8.42;100.00
79463;BME280;68931;47.286;18.756;2024-02-28T01:12:25;100564.06;;;8.31;100.00
79463;BME280;68931;47.286;18.756;2024-02-28T01:12:57;100573.25;;;8.40;100.00
79463;BME280;68931;47.286;18.756;2024-02-28T01:13:29;100549.56;;;8.24;100.00
79463;BME280;68931;47.286;18.756;2024-02-28T01:14:01;100553.66;;;8.29;100.00
79463;BME280;68931;47.286;18.756;2024-02-28T01:14:33;100580.22;;;8.39;100.00
79463;BME280;68931;47.286;18.756;2024-02-28T01:15:06;100575.06;;;8.38;100.00
79463;BME280;68931;47.286;18.756;2024-02-28T01:15:41;100545.31;;;8.21;100.00
79463;BME280;68931;47.286;18.756;2024-02-28T01:16:14;100564.78;;;8.35;100.00
79463;BME280;68931;47.286;18.756;2024-02-28T01:16:46;100572.53;;;8.36;100.00
79463;BME280;68931;47.286;18.756;2024-02-28T01:17:20;100578.47;;;8.40;100.00
79463;BME280;68931;47.286;18.756;2024-02-28T01:17:53;100576.91;;;8.36;100.00
79463;BME280;68931;47.286;18.756;2024-02-28T01:18:25;100575.13;;;8.36;100.00
79463;BME280;68931;47.286;18.756;2024-02-28T01:18:57;100580.53;;;8.33;100.00
79463;BME280;68931;47.286;18.756;2024-02-28T01:19:29;100575.97;;;8.37;100.00
79463;BME280;68931;47.286;18.756;2024-02-28T01:20:02;100576.25;;;8.30;100.00
79463;BME280;68931;47.286;18.756;2024-02-28T01:20:34;100580.75;;;8.27;100.00
79463;BME280;68931;47.286;18.756;2024-02-28T01:21:06;100568.97;;;8.18;100.00
79463;BME280;68931;47.286;18.756;2024-02-28T01:21:38;100588.69;;;8.25;100.00
79463;BME280;68931;47.286;18.756;2024-02-28T01:22:11;100584.75;;;8.17;100.00
79463;BME280;68931;47.286;18.756;2024-02-28T01:22:43;100566.78;;;8.09;100.00
79463;BME280;68931;47.286;18.756;2024-02-28T01:23:15;100597.59;;;8.21;100.00
79463;BME280;68931;47.286;18.756;2024-02-28T01:23:47;100581.63;;;8.09;100.00
79463;BME280;68931;47.286;18.756;2024-02-28T01:24:19;100597.81;;;8.17;100.00
79463;BME280;68931;47.286;18.756;2024-02-28T01:24:51;100594.41;;;8.15;100.00
79463;BME280;68931;47.286;18.756;2024-02-28T01:25:23;100601.97;;;8.21;100.00
79463;BME280;68931;47.286;18.756;2024-02-28T01:25:58;100569.56;;;8.06;100.00
79463;BME280;68931;47.286;18.756;2024-02-28T01:26:30;100584.16;;;8.10;100.00
79463;BME280;68931;47.286;18.756;2024-02-28T01:27:02;100581.34;;;8.15;100.00
79463;BME280;68931;47.286;18.756;2024-02-28T01:27:34;100594.13;;;8.21;100.00
79463;BME280;68931;47.286;18.756;2024-02-28T01:28:06;100582.25;;;8.14;100.00
79463;BME280;68931;47.286;18.756;2024-02-28T01:28:38;100581.63;;;8.09;100.00
79463;BME280;68931;47.286;18.756;2024-02-28T01:29:12;100600.31;;;8.18;100.00
79463;BME280;68931;47.286;18.756;2024-02-28T01:29:44;100601.06;;;8.22;100.00
79463;BME280;68931;47.286;18.756;2024-02-28T01:30:16;100608.09;;;8.20;100.00
79463;BME280;68931;47.286;18.756;2024-02-28T01:30:48;100592.78;;;8.12;100.00
79463;BME280;68931;47.286;18.756;2024-02-28T01:31:20;100603.94;;;8.16;100.00
79463;BME280;68931;47.286;18.756;2024-02-28T01:31:55;100592.91;;;8.09;100.00
79463;BME280;68931;47.286;18.756;2024-02-28T01:32:29;100596.19;;;8.14;100.00
79463;BME280;68931;47.286;18.756;2024-02-28T01:33:01;100569.91;;;7.99;100.00
79463;BME280;68931;47.286;18.756;2024-02-28T01:33:33;100588.69;;;8.07;100.00
79463;BME280;68931;47.286;18.756;2024-02-28T01:34:05;100565.78;;;7.93;100.00
79463;BME280;68931;47.286;18.756;2024-02-28T01:34:37;100576.13;;;7.96;100.00
79463;BME280;68931;47.286;18.756;2024-02-28T01:35:09;100593.97;;;8.05;100.00
79463;BME280;68931;47.286;18.756;2024-02-28T01:35:42;100599.84;;;8.10;100.00
79463;BME280;68931;47.286;18.756;2024-02-28T01:36:14;100602.59;;;8.07;100.00
79463;BME280;68931;47.286;18.756;2024-02-28T01:36:46;100595.75;;;8.05;100.00
79463;BME280;68931;47.286;18.756;2024-02-28T01:37:18;100583.03;;;7.97;100.00
79463;BME280;68931;47.286;18.756;2024-02-28T01:37:50;100584.72;;;7.98;100.00
79463;BME280;68931;47.286;18.756;2024-02-28T01:38:22;100600.25;;;8.01;100.00
79463;BME280;68931;47.286;18.756;2024-02-28T01:38:54;100575.69;;;7.86;100.00
79463;BME280;68931;47.286;18.756;2024-02-28T01:39:26;100574.03;;;7.84;100.00
79463;BME280;68931;47.286;18.756;2024-02-28T01:39:58;100580.84;;;7.88;100.00
79463;BME280;68931;47.286;18.756;2024-02-28T01:40:30;100599.50;;;7.99;100.00
79463;BME280;68931;47.286;18.756;2024-02-28T01:41:02;100599.41;;;8.01;100.00
79463;BME280;68931;47.286;18.756;2024-02-28T01:41:34;100597.00;;;7.96;100.00
79463;BME280;68931;47.286;18.756;2024-02-28T01:42:06;100581.69;;;7.88;100.00
79463;BME280;68931;47.286;18.756;2024-02-28T01:42:38;100595.31;;;7.95;100.00
79463;BME280;68931;47.286;18.756;2024-02-28T01:43:13;100604.72;;;7.99;100.00
79463;BME280;68931;47.286;18.756;2024-02-28T01:43:45;100582.88;;;7.81;100.00
79463;BME280;68931;47.286;18.756;2024-02-28T01:44:17;100607.59;;;7.93;100.00
79463;BME280;68931;47.286;18.756;2024-02-28T01:44:50;100600.88;;;7.87;100.00
79463;BME280;68931;47.286;18.756;2024-02-28T01:45:22;100591.56;;;7.82;100.00
79463;BME280;68931;47.286;18.756;2024-02-28T01:45:54;100583.06;;;7.77;100.00
79463;BME280;68931;47.286;18.756;2024-02-28T01:46:27;100599.13;;;7.88;100.00
79463;BME280;68931;47.286;18.756;2024-02-28T01:46:59;100572.97;;;7.69;100.00
79463;BME280;68931;47.286;18.756;2024-02-28T01:47:31;100604.22;;;7.91;100.00
79463;BME280;68931;47.286;18.756;2024-02-28T01:48:04;100603.22;;;7.93;100.00
79463;BME280;68931;47.286;18.756;2024-02-28T01:48:38;100589.66;;;7.85;100.00
79463;BME280;68931;47.286;18.756;2024-02-28T01:49:10;100588.75;;;7.86;100.00
79463;BME280;68931;47.286;18.756;2024-02-28T01:49:42;100599.00;;;7.91;100.00
79463;BME280;68931;47.286;18.756;2024-02-28T01:50:15;100583.00;;;7.78;100.00
79463;BME280;68931;47.286;18.756;2024-02-28T01:50:48;100572.56;;;7.78;100.00
79463;BME280;68931;47.286;18.756;2024-02-28T01:51:22;100587.25;;;7.81;100.00
79463;BME280;68931;47.286;18.756;2024-02-28T01:51:55;100571.94;;;7.73;100.00
79463;BME280;68931;47.286;18.756;2024-02-28T01:52:28;100589.72;;;7.84;100.00
79463;BME280;68931;47.286;18.756;2024-02-28T01:53:01;100604.41;;;7.86;100.00
79463;BME280;68931;47.286;18.756;2024-02-28T01:53:33;100606.84;;;7.91;100.00
79463;BME280;68931;47.286;18.756;2024-02-28T01:54:06;100597.56;;;7.84;100.00
79463;BME280;68931;47.286;18.756;2024-02-28T01:54:38;100584.00;;;7.76;100.00
79463;BME280;68931;47.286;18.756;2024-02-28T01:55:13;100578.91;;;7.73;100.00
79463;BME280;68931;47.286;18.756;2024-02-28T01:55:45;100592.47;;;7.81;100.00
79463;BME280;68931;47.286;18.756;2024-02-28T01:56:19;100599.41;;;7.82;100.00
79463;BME280;68931;47.286;18.756;2024-02-28T01:56:51;100596.84;;;7.80;100.00
79463;BME280;68931;47.286;18.756;2024-02-28T01:57:23;100573.09;;;7.66;100.00
79463;BME280;68931;47.286;18.756;2024-02-28T01:57:56;100600.50;;;7.76;100.00
79463;BME280;68931;47.286;18.756;2024-02-28T01:58:28;100607.25;;;7.82;100.00
79463;BME280;68931;47.286;18.756;2024-02-28T01:59:02;100605.66;;;7.78;100.00
79463;BME280;68931;47.286;18.756;2024-02-28T01:59:34;100597.03;;;7.76;100.00
79463;BME280;68931;47.286;18.756;2024-02-28T02:00:07;100603.19;;;7.75;100.00
79463;BME280;68931;47.286;18.756;2024-02-28T02:00:43;100594.59;;;7.73;100.00
79463;BME280;68931;47.286;18.756;2024-02-28T02:01:16;100595.28;;;7.76;100.00
79463;BME280;68931;47.286;18.756;2024-02-28T02:01:49;100602.78;;;7.84;100.00
79463;BME280;68931;47.286;18.756;2024-02-28T02:02:21;100591.06;;;7.74;100.00
79463;BME280;68931;47.286;18.756;2024-02-28T02:02:54;100603.69;;;7.83;100.00
79463;BME280;68931;47.286;18.756;2024-02-28T02:03:26;100600.25;;;7.82;100.00
79463;BME280;68931;47.286;18.756;2024-02-28T02:03:58;100596.97;;;7.77;100.00
79463;BME280;68931;47.286;18.756;2024-02-28T02:04:30;100600.09;;;7.85;100.00
79463;BME280;68931;47.286;18.756;2024-02-28T02:05:03;100589.81;;;7.82;100.00
79463;BME280;68931;47.286;18.756;2024-02-28T02:05:35;100589.22;;;7.76;100.00
79463;BME280;68931;47.286;18.756;2024-02-28T02:06:07;100590.06;;;7.76;100.00
79463;BME280;68931;47.286;18.756;2024-02-28T02:06:43;100585.63;;;7.78;100.00
79463;BME280;68931;47.286;18.756;2024-02-28T02:07:16;100594.38;;;7.77;100.00
79463;BME280;68931;47.286;18.756;2024-02-28T02:07:49;100603.56;;;7.86;100.00
79463;BME280;68931;47.286;18.756;2024-02-28T02:08:24;100581.53;;;7.73;100.00
79463;BME280;68931;47.286;18.756;2024-02-28T02:08:56;100593.41;;;7.80;100.00
79463;BME280;68931;47.286;18.756;2024-02-28T02:09:29;100590.78;;;7.80;100.00
79463;BME280;68931;47.286;18.756;2024-02-28T02:10:01;100601.66;;;7.89;100.00
79463;BME280;68931;47.286;18.756;2024-02-28T02:10:33;100592.53;;;7.79;100.00
79463;BME280;68931;47.286;18.756;2024-02-28T02:11:05;100578.06;;;7.72;100.00
79463;BME280;68931;47.286;18.756;2024-02-28T02:11:43;100596.69;;;7.83;100.00
79463;BME280;68931;47.286;18.756;2024-02-28T02:12:16;100599.13;;;7.88;100.00
79463;BME280;68931;47.286;18.756;2024-02-28T02:12:48;100570.25;;;7.72;100.00
79463;BME280;68931;47.286;18.756;2024-02-28T02:13:20;100578.63;;;7.79;100.00
79463;BME280;68931;47.286;18.756;2024-02-28T02:13:53;100591.56;;;7.82;100.00
79463;BME280;68931;47.286;18.756;2024-02-28T02:14:25;100608.50;;;7.92;100.00
79463;BME280;68931;47.286;18.756;2024-02-28T02:14:57;100596.78;;;7.82;100.00
79463;BME280;68931;47.286;18.756;2024-02-28T02:15:29;100604.22;;;7.91;100.00
79463;BME280;68931;47.286;18.756;2024-02-28T02:16:03;100576.31;;;7.73;100.00
79463;BME280;68931;47.286;18.756;2024-02-28T02:16:35;100583.81;;;7.80;100.00
79463;BME280;68931;47.286;18.756;2024-02-28T02:17:07;100587.31;;;7.79;100.00
79463;BME280;68931;47.286;18.756;2024-02-28T02:17:39;100579.50;;;7.79;100.00
79463;BME280;68931;47.286;18.756;2024-02-28T02:18:11;100609.28;;;7.94;100.00
79463;BME280;68931;47.286;18.756;2024-02-28T02:18:43;100606.84;;;7.91;100.00
79463;BME280;68931;47.286;18.756;2024-02-28T02:19:16;100582.03;;;7.81;100.00
79463;BME280;68931;47.286;18.756;2024-02-28T02:19:49;100580.41;;;7.78;100.00
79463;BME280;68931;47.286;18.756;2024-02-28T02:20:22;100580.34;;;7.80;100.00
79463;BME280;68931;47.286;18.756;2024-02-28T02:21:02;100587.03;;;7.85;100.00
79463;BME280;68931;47.286;18.756;2024-02-28T02:21:56;100610.84;;;7.98;100.00
79463;BME280;68931;47.286;18.756;2024-02-28T02:22:34;100605.63;;;7.98;100.00
79463;BME280;68931;47.286;18.756;2024-02-28T02:23:09;100592.81;;;7.92;100.00
79463;BME280;68931;47.286;18.756;2024-02-28T02:23:41;100596.28;;;7.92;100.00
79463;BME280;68931;47.286;18.756;2024-02-28T02:24:16;100596.44;;;7.89;100.00
79463;BME280;68931;47.286;18.756;2024-02-28T02:24:48;100602.38;;;7.93;100.00
79463;BME280;68931;47.286;18.756;2024-02-28T02:25:20;100592.19;;;7.87;100.00
79463;BME280;68931;47.286;18.756;2024-02-28T02:25:52;100582.03;;;7.81;100.00
79463;BME280;68931;47.286;18.756;2024-02-28T02:26:24;100605.75;;;7.95;100.00
79463;BME280;68931;47.286;18.756;2024-02-28T02:26:59;100599.97;;;7.88;100.00
79463;BME280;68931;47.286;18.756;2024-02-28T02:27:31;100574.31;;;7.78;100.00
79463;BME280;68931;47.286;18.756;2024-02-28T02:28:04;100575.13;;;7.80;100.00
79463;BME280;68931;47.286;18.756;2024-02-28T02:28:36;100592.13;;;7.88;100.00
79463;BME280;68931;47.286;18.756;2024-02-28T02:29:08;100593.91;;;7.88;100.00
79463;BME280;68931;47.286;18.756;2024-02-28T02:29:41;100608.25;;;7.98;100.00
79463;BME280;68931;47.286;18.756;2024-02-28T02:30:13;100587.75;;;7.89;100.00
79463;BME280;68931;47.286;18.756;2024-02-28T02:30:45;100603.09;;;7.97;100.00
79463;BME280;68931;47.286;18.756;2024-02-28T02:31:19;100618.41;;;8.04;100.00
79463;BME280;68931;47.286;18.756;2024-02-28T02:31:51;100602.22;;;7.96;100.00
79463;BME280;68931;47.286;18.756;2024-02-28T02:32:23;100613.91;;;8.08;100.00
79463;BME280;68931;47.286;18.756;2024-02-28T02:32:55;100612.16;;;8.08;100.00
79463;BME280;68931;47.286;18.756;2024-02-28T02:33:28;100595.97;;;8.00;100.00
79463;BME280;68931;47.286;18.756;2024-02-28T02:34:00;100603.59;;;8.05;100.00
79463;BME280;68931;47.286;18.756;2024-02-28T02:34:32;100612.84;;;8.12;100.00
79463;BME280;68931;47.286;18.756;2024-02-28T02:35:04;100598.59;;;8.00;100.00
79463;BME280;68931;47.286;18.756;2024-02-28T02:35:37;100595.03;;;8.01;100.00
79463;BME280;68931;47.286;18.756;2024-02-28T02:36:09;100601.81;;;8.05;100.00
79463;BME280;68931;47.286;18.756;2024-02-28T02:36:41;100621.34;;;8.17;100.00
79463;BME280;68931;47.286;18.756;2024-02-28T02:37:13;100591.66;;;7.99;100.00
79463;BME280;68931;47.286;18.756;2024-02-28T02:37:45;100602.72;;;8.04;100.00
79463;BME280;68931;47.286;18.756;2024-02-28T02:38:20;100614.88;;;8.05;100.00
79463;BME280;68931;47.286;18.756;2024-02-28T02:38:52;100609.59;;;8.07;100.00
79463;BME280;68931;47.286;18.756;2024-02-28T02:39:24;100608.81;;;8.05;100.00
79463;BME280;68931;47.286;18.756;2024-02-28T02:39:56;100597.56;;;8.03;100.00
79463;BME280;68931;47.286;18.756;2024-02-28T02:40:28;100609.53;;;8.08;100.00
79463;BME280;68931;47.286;18.756;2024-02-28T02:41:00;100629.94;;;8.19;100.00
79463;BME280;68931;47.286;18.756;2024-02-28T02:41:32;100610.28;;;8.10;100.00
79463;BME280;68931;47.286;18.756;2024-02-28T02:42:04;100616.84;;;8.19;100.00
79463;BME280;68931;47.286;18.756;2024-02-28T02:42:36;100614.97;;;8.22;100.00
79463;BME280;68931;47.286;18.756;2024-02-28T02:43:08;100597.22;;;8.10;100.00
79463;BME280;68931;47.286;18.756;2024-02-28T02:43:41;100620.06;;;8.25;100.00
79463;BME280;68931;47.286;18.756;2024-02-28T02:44:13;100597.03;;;8.15;100.00
79463;BME280;68931;47.286;18.756;2024-02-28T02:44:45;100606.63;;;8.14;100.00
79463;BME280;68931;47.286;18.756;2024-02-28T02:45:17;100607.34;;;8.18;100.00
79463;BME280;68931;47.286;18.756;2024-02-28T02:45:52;100610.59;;;8.23;100.00
79463;BME280;68931;47.286;18.756;2024-02-28T02:46:24;100602.94;;;8.18;100.00
79463;BME280;68931;47.286;18.756;2024-02-28T02:46:56;100613.13;;;8.24;100.00
79463;BME280;68931;47.286;18.756;2024-02-28T02:47:28;100611.31;;;8.26;100.00
79463;BME280;68931;47.286;18.756;2024-02-28T02:48:00;100603.59;;;8.23;100.00
79463;BME280;68931;47.286;18.756;2024-02-28T02:48:32;100607.19;;;8.21;100.00